(°C)
10°
10°
10°
10°
10°
(°C)
JV
JV
JV
JV
JV
JV
JV
(km/h)
22-40
22-40
22-37
21-34
20-31
18-30
17-30
(mm)
0
0
0
0
0
0
0
(%)
1
2
9
3
2
2
8

Výška Slnka nad obzorom

/ 32.8°
sun-icon
UV 2
06:17
18:28
Zmenšujúci sa polmesiac (220°)
19:36
10:03

Správy METAR pre lokalitu 55.6°S 37.27°V (UUWW)

Čas Podmienky Teplota/
Rosný bod
Vietor Viditeľnosť Počasie Oblaky Tlak Zmeniť Nespracované
MVFR 9°C / 4°C 160º 8kt >10km - Broken Clouds 2800ft 1003 No Significant change UUWW 241000Z 16004MPS 9999 BKN028 09/04 Q1003 R24/000070 NOSIG
MVFR 9°C / 5°C 170º variable 130º to 200º 8kt >10km - Broken Clouds 2200ft 1003 No Significant change UUWW 240930Z 17004MPS 130V200 9999 BKN022 09/05 Q1003 R24/000070 NOSIG
MVFR 9°C / 5°C 150º 8kt >10km - Broken Clouds 2200ft 1003 No Significant change UUWW 240900Z 15004MPS 9999 BKN022 09/05 Q1003 R24/000070 NOSIG
MVFR 9°C / 6°C 140º 10kt >10km - Broken Clouds 1900ft 1003 No Significant change UUWW 240830Z 14005MPS 9999 BKN019 09/06 Q1003 R24/000070 NOSIG
MVFR 8°C / 5°C 160º 6kt >10km - Broken Clouds 1700ft 1003 No Significant change UUWW 240800Z 16003MPS 9999 BKN017 08/05 Q1003 R24/000070 NOSIG
MVFR 8°C / 5°C 160º 6kt >10km - Broken Clouds 1600ft 1003 No Significant change UUWW 240730Z 16003MPS 9999 BKN016 08/05 Q1003 R24/000070 NOSIG
MVFR 8°C / 5°C 150º variable 120º to 200º 8kt >10km - Broken Clouds 1500ft 1004 No Significant change UUWW 240700Z 15004MPS 120V200 9999 BKN015 08/05 Q1004 R24/000070 NOSIG
VFR 8°C / 5°C 150º variable 120º to 190º 8kt >10km - Few Clouds 1300ft 1004 No Significant change UUWW 240630Z 15004MPS 120V190 9999 FEW013 08/05 Q1004 R24/000070 NOSIG
VFR 7°C / 5°C 140º 8kt >10km - Clouds and Visibility OK 1004 No Significant change UUWW 240600Z 14004MPS CAVOK 07/05 Q1004 R24/000070 NOSIG
VFR 6°C / 5°C 130º 6kt >10km - Clouds and Visibility OK 1004 No Significant change UUWW 240530Z 13003MPS CAVOK 06/05 Q1004 R24/000070 NOSIG
LIFR 5°C / 5°C 140º 6kt >10km - Broken Clouds 400ft 1004 No Significant change UUWW 240500Z 14003MPS 9999 BKN004 05/05 Q1004 R24/000070 NOSIG
LIFR 5°C / 4°C 120º 6kt >10km - Broken Clouds 300ft 1004 No Significant change UUWW 240430Z 12003MPS 9999 BKN003 05/04 Q1004 R24/000070 NOSIG
VFR 5°C / 4°C 120º 4kt >10km - Clouds and Visibility OK 1004 No Significant change UUWW 240400Z 12002MPS CAVOK 05/04 Q1004 R24/000070 NOSIG
VFR 5°C / 4°C 160º 4kt >10km - Clouds and Visibility OK 1005 No Significant change UUWW 240330Z 16002MPS CAVOK 05/04 Q1005 R24/000070 NOSIG
VFR 5°C / 5°C 170º 4kt >10km - Clouds and Visibility OK 1005 No Significant change UUWW 240300Z 17002MPS CAVOK 05/05 Q1005 R24/000070 NOSIG
VFR 6°C / 5°C 170º 4kt >10km - Clouds and Visibility OK 1005 No Significant change UUWW 240230Z 17002MPS CAVOK 06/05 Q1005 R24/000070 NOSIG
VFR 6°C / 5°C 160º 4kt >10km - Clouds and Visibility OK 1005 No Significant change UUWW 240200Z 16002MPS CAVOK 06/05 Q1005 R24/000065 NOSIG
MVFR 7°C / 6°C 170º 4kt >10km - Few Clouds 700ft 1005 No Significant change UUWW 240130Z 17002MPS 9999 FEW007 OVC020 07/06 Q1005 R24/000065 NOSIG
LIFR 7°C / 7°C 170º 6kt >10km - Broken Clouds 300ft 1006 No Significant change UUWW 240100Z 17003MPS 9999 BKN003 OVC020 07/07 Q1006 R24/000065 NOSIG
LIFR 7°C / 7°C 180º 6kt 8000m - Broken Clouds 300ft 1006 No Significant change UUWW 240030Z 18003MPS 8000 BKN003 07/07 Q1006 R24/000065 NOSIG
LIFR 7°C / 7°C 180º 6kt 800m. Runway 24: Visual range is 1800m. Fog Vertical Visibility of 0ft. 1006 Temporary: Visibility 0700. Fog . Broken Clouds 100ft. RMK QBB040 UUWW 240000Z 18003MPS 0800 0650W R24/1800N FG VV001 07/07 Q1006 R24/000065 TEMPO 0700 FG BKN001 RMK QBB040
LIFR 7°C / 7°C 160º 6kt 2500m. Runway 24: Visual range is 2000m and decreasing. Mist Vertical Visibility of 0ft. 1006 Temporary: Visibility 1000. Mist . Broken Clouds 100ft. RMK QBB040 UUWW 232330Z 16003MPS 2500 R24/P2000D BR OVC001 07/07 Q1006 R24/000065 TEMPO 1000 BR BKN001 RMK QBB040
LIFR 7°C / 7°C 160º 6kt 5000m Mist Vertical Visibility of 0ft. 1007 Temporary: Visibility 1000. Mist . Broken Clouds 100ft. RMK QBB060 UUWW 232300Z 16003MPS 5000 BR OVC002 07/07 Q1007 R24/000065 TEMPO 1000 BR BKN001 RMK QBB060
LIFR 7°C / 7°C 160º 6kt 9000m - Broken Clouds 400ft 1007 No Significant change UUWW 232230Z 16003MPS 9000 BKN004 BKN020 07/07 Q1007 R24/000065 NOSIG

MVFR

9°C / 4°C

[Viac]
Vietor 160º 8kt
Viditeľnosť >10km
Počasie -
Oblaky Broken Clouds 2800ft
Tlak 1003
Zmeniť No Significant change
Nespracované UUWW 241000Z 16004MPS 9999 BKN028 09/04 Q1003 R24/000070 NOSIG

MVFR

9°C / 5°C

[Viac]
Vietor 170º variable 130º to 200º 8kt
Viditeľnosť >10km
Počasie -
Oblaky Broken Clouds 2200ft
Tlak 1003
Zmeniť No Significant change
Nespracované UUWW 240930Z 17004MPS 130V200 9999 BKN022 09/05 Q1003 R24/000070 NOSIG

MVFR

9°C / 5°C

[Viac]
Vietor 150º 8kt
Viditeľnosť >10km
Počasie -
Oblaky Broken Clouds 2200ft
Tlak 1003
Zmeniť No Significant change
Nespracované UUWW 240900Z 15004MPS 9999 BKN022 09/05 Q1003 R24/000070 NOSIG

MVFR

9°C / 6°C

[Viac]
Vietor 140º 10kt
Viditeľnosť >10km
Počasie -
Oblaky Broken Clouds 1900ft
Tlak 1003
Zmeniť No Significant change
Nespracované UUWW 240830Z 14005MPS 9999 BKN019 09/06 Q1003 R24/000070 NOSIG

MVFR

8°C / 5°C

[Viac]
Vietor 160º 6kt
Viditeľnosť >10km
Počasie -
Oblaky Broken Clouds 1700ft
Tlak 1003
Zmeniť No Significant change
Nespracované UUWW 240800Z 16003MPS 9999 BKN017 08/05 Q1003 R24/000070 NOSIG

MVFR

8°C / 5°C

[Viac]
Vietor 160º 6kt
Viditeľnosť >10km
Počasie -
Oblaky Broken Clouds 1600ft
Tlak 1003
Zmeniť No Significant change
Nespracované UUWW 240730Z 16003MPS 9999 BKN016 08/05 Q1003 R24/000070 NOSIG

MVFR

8°C / 5°C

[Viac]
Vietor 150º variable 120º to 200º 8kt
Viditeľnosť >10km
Počasie -
Oblaky Broken Clouds 1500ft
Tlak 1004
Zmeniť No Significant change
Nespracované UUWW 240700Z 15004MPS 120V200 9999 BKN015 08/05 Q1004 R24/000070 NOSIG

VFR

8°C / 5°C

[Viac]
Vietor 150º variable 120º to 190º 8kt
Viditeľnosť >10km
Počasie -
Oblaky Few Clouds 1300ft
Tlak 1004
Zmeniť No Significant change
Nespracované UUWW 240630Z 15004MPS 120V190 9999 FEW013 08/05 Q1004 R24/000070 NOSIG

VFR

7°C / 5°C

[Viac]
Vietor 140º 8kt
Viditeľnosť >10km
Počasie -
Oblaky Clouds and Visibility OK
Tlak 1004
Zmeniť No Significant change
Nespracované UUWW 240600Z 14004MPS CAVOK 07/05 Q1004 R24/000070 NOSIG

VFR

6°C / 5°C

[Viac]
Vietor 130º 6kt
Viditeľnosť >10km
Počasie -
Oblaky Clouds and Visibility OK
Tlak 1004
Zmeniť No Significant change
Nespracované UUWW 240530Z 13003MPS CAVOK 06/05 Q1004 R24/000070 NOSIG

LIFR

5°C / 5°C

[Viac]
Vietor 140º 6kt
Viditeľnosť >10km
Počasie -
Oblaky Broken Clouds 400ft
Tlak 1004
Zmeniť No Significant change
Nespracované UUWW 240500Z 14003MPS 9999 BKN004 05/05 Q1004 R24/000070 NOSIG

LIFR

5°C / 4°C

[Viac]
Vietor 120º 6kt
Viditeľnosť >10km
Počasie -
Oblaky Broken Clouds 300ft
Tlak 1004
Zmeniť No Significant change
Nespracované UUWW 240430Z 12003MPS 9999 BKN003 05/04 Q1004 R24/000070 NOSIG

VFR

5°C / 4°C

[Viac]
Vietor 120º 4kt
Viditeľnosť >10km
Počasie -
Oblaky Clouds and Visibility OK
Tlak 1004
Zmeniť No Significant change
Nespracované UUWW 240400Z 12002MPS CAVOK 05/04 Q1004 R24/000070 NOSIG

VFR

5°C / 4°C

[Viac]
Vietor 160º 4kt
Viditeľnosť >10km
Počasie -
Oblaky Clouds and Visibility OK
Tlak 1005
Zmeniť No Significant change
Nespracované UUWW 240330Z 16002MPS CAVOK 05/04 Q1005 R24/000070 NOSIG

VFR

5°C / 5°C

[Viac]
Vietor 170º 4kt
Viditeľnosť >10km
Počasie -
Oblaky Clouds and Visibility OK
Tlak 1005
Zmeniť No Significant change
Nespracované UUWW 240300Z 17002MPS CAVOK 05/05 Q1005 R24/000070 NOSIG

VFR

6°C / 5°C

[Viac]
Vietor 170º 4kt
Viditeľnosť >10km
Počasie -
Oblaky Clouds and Visibility OK
Tlak 1005
Zmeniť No Significant change
Nespracované UUWW 240230Z 17002MPS CAVOK 06/05 Q1005 R24/000070 NOSIG

VFR

6°C / 5°C

[Viac]
Vietor 160º 4kt
Viditeľnosť >10km
Počasie -
Oblaky Clouds and Visibility OK
Tlak 1005
Zmeniť No Significant change
Nespracované UUWW 240200Z 16002MPS CAVOK 06/05 Q1005 R24/000065 NOSIG

MVFR

7°C / 6°C

[Viac]
Vietor 170º 4kt
Viditeľnosť >10km
Počasie -
Oblaky Few Clouds 700ft
Tlak 1005
Zmeniť No Significant change
Nespracované UUWW 240130Z 17002MPS 9999 FEW007 OVC020 07/06 Q1005 R24/000065 NOSIG

LIFR

7°C / 7°C

[Viac]
Vietor 170º 6kt
Viditeľnosť >10km
Počasie -
Oblaky Broken Clouds 300ft
Tlak 1006
Zmeniť No Significant change
Nespracované UUWW 240100Z 17003MPS 9999 BKN003 OVC020 07/07 Q1006 R24/000065 NOSIG

LIFR

7°C / 7°C

[Viac]
Vietor 180º 6kt
Viditeľnosť 8000m
Počasie -
Oblaky Broken Clouds 300ft
Tlak 1006
Zmeniť No Significant change
Nespracované UUWW 240030Z 18003MPS 8000 BKN003 07/07 Q1006 R24/000065 NOSIG

LIFR

7°C / 7°C

[Viac]
Vietor 180º 6kt
Viditeľnosť 800m. Runway 24: Visual range is 1800m.
Počasie Fog
Oblaky Vertical Visibility of 0ft.
Tlak 1006
Zmeniť Temporary: Visibility 0700. Fog . Broken Clouds 100ft. RMK QBB040
Nespracované UUWW 240000Z 18003MPS 0800 0650W R24/1800N FG VV001 07/07 Q1006 R24/000065 TEMPO 0700 FG BKN001 RMK QBB040

LIFR

7°C / 7°C

[Viac]
Vietor 160º 6kt
Viditeľnosť 2500m. Runway 24: Visual range is 2000m and decreasing.
Počasie Mist
Oblaky Vertical Visibility of 0ft.
Tlak 1006
Zmeniť Temporary: Visibility 1000. Mist . Broken Clouds 100ft. RMK QBB040
Nespracované UUWW 232330Z 16003MPS 2500 R24/P2000D BR OVC001 07/07 Q1006 R24/000065 TEMPO 1000 BR BKN001 RMK QBB040

LIFR

7°C / 7°C

[Viac]
Vietor 160º 6kt
Viditeľnosť 5000m
Počasie Mist
Oblaky Vertical Visibility of 0ft.
Tlak 1007
Zmeniť Temporary: Visibility 1000. Mist . Broken Clouds 100ft. RMK QBB060
Nespracované UUWW 232300Z 16003MPS 5000 BR OVC002 07/07 Q1007 R24/000065 TEMPO 1000 BR BKN001 RMK QBB060

LIFR

7°C / 7°C

[Viac]
Vietor 160º 6kt
Viditeľnosť 9000m
Počasie -
Oblaky Broken Clouds 400ft
Tlak 1007
Zmeniť No Significant change
Nespracované UUWW 232230Z 16003MPS 9000 BKN004 BKN020 07/07 Q1007 R24/000065 NOSIG

Správy TAF pre lokalitu 55.6°S 37.27°V (UUWW)

From till


Maximum Temperature 11ºC on . Minimum Temperature 6ºC on .
From till Wind 160º 10kt. Visibility 10km or more. Few Clouds 400ft. Broken Clouds 1600ft.
Temporarly from till Wind 150º 16kt. Gust 25kt. Light Showers Rain . Broken Clouds 1500ft.

Nespracované: TAF UUWW 240757Z 2409/2509 16005MPS 9999 FEW004 BKN016 TX11/2412Z TN06/2502Z TEMPO 2409/2418 15008G13MPS -SHRA BKN015CB

Aktuálne satelitné snímky a snímky zrážok pre lokalitu 55.6°S 37.27°V

Značka polohy je umiestnená na55.6°S 37.27°V. [Viac]

Satelitné snímky zhotovované v reálnom čase využívajú viditeľné svetlo počas dňa a infračervené žiarenie počas noci. Vzhľadom na to, že infračervené žiarenie zisťuje teplotné rozdiely, snímka v noci nie je tmavá. Nízke oblaky a hmlu je, žiaľ, ťažké odlíšiť od prízemných teplôt, preto môžu byť počas noci takmer neviditeľné. Meteosat satelitné snímky pre Európu sú aktualizované v reálnom čase každých 5 minút. Snímky z GOES-16/GOES-17 (Severná a Južná Amerika) a Himawari (Ázia) sú aktualizované každých 10 minút.

Copyright 2021 EUMETSAT / meteoblue. / Copyright 2021 meteoblue

Radar a krátkodobá predpoveď zrážok pre 55.6°S 37.27°V

Mrholenie
Slabý
Mierne
Ťažké
Veľmi ťažké
Krúpy

Značka polohy je umiestnená na 55.6°S 37.27°V. Táto animácia ukazuje zrážky pozorované radarom za poslednú hodinu a tiež 1h predpoveď. Mrholenie alebo slabé sneženie môže byť pre radar neviditeľné. Intenzita zrážok je farebne označená od svetlomodrej po oranžovú.